createdAt,value
2022-08-02T00:00:44.843Z,66.54
2022-08-02T00:03:12.919Z,66.36
2022-08-02T00:05:53.132Z,65.89
2022-08-02T00:08:23.512Z,66.04
2022-08-02T00:10:53.803Z,65.91
2022-08-02T00:13:21.871Z,65.90
2022-08-02T00:15:49.961Z,65.80
2022-08-02T00:18:18.101Z,65.76
2022-08-02T00:20:46.197Z,65.77
2022-08-02T00:23:14.170Z,65.74
2022-08-02T00:25:54.760Z,65.74
2022-08-02T00:28:26.934Z,65.92
2022-08-02T00:30:56.784Z,65.93
2022-08-02T00:34:05.751Z,66.06
2022-08-02T00:36:13.665Z,66.19
2022-08-02T00:38:42.103Z,66.19
2022-08-02T00:41:17.960Z,66.19
2022-08-02T00:43:46.676Z,66.33
2022-08-02T00:46:15.258Z,66.33
2022-08-02T00:48:43.945Z,66.36
2022-08-02T00:51:12.547Z,66.49
2022-08-02T00:53:41.549Z,66.74
2022-08-02T00:56:09.777Z,66.73
2022-08-02T00:58:39.577Z,66.85
2022-08-02T01:01:08.004Z,66.93
2022-08-02T01:03:36.318Z,66.95
2022-08-02T01:06:13.409Z,67.20
2022-08-02T01:08:44.539Z,67.21
2022-08-02T01:11:13.641Z,67.22
2022-08-02T01:13:43.407Z,67.23
2022-08-02T01:16:16.034Z,67.43
2022-08-02T01:18:47.307Z,67.40
2022-08-02T01:21:34.643Z,67.44
2022-08-02T01:24:17.044Z,67.56
2022-08-02T01:26:49.472Z,67.65
2022-08-02T01:29:19.941Z,67.65
2022-08-02T01:31:51.470Z,67.68
2022-08-02T01:34:23.543Z,67.72
2022-08-02T01:36:57.437Z,67.77
2022-08-02T01:39:32.351Z,67.85
2022-08-02T01:42:02.415Z,67.89
2022-08-02T01:44:35.115Z,67.98
2022-08-02T01:47:05.580Z,68.02
2022-08-02T01:49:34.803Z,68.03
2022-08-02T01:52:27.478Z,68.06
2022-08-02T01:54:58.949Z,68.30
2022-08-02T01:57:29.186Z,68.29
2022-08-02T02:00:01.688Z,68.32
2022-08-02T02:02:31.878Z,68.40
2022-08-02T02:05:01.125Z,68.63
2022-08-02T02:07:30.423Z,68.49
2022-08-02T02:10:00.023Z,68.57
2022-08-02T02:12:28.301Z,68.63
2022-08-02T02:14:58.641Z,68.55
2022-08-02T02:18:11.686Z,68.63
2022-08-02T02:20:18.441Z,68.69
2022-08-02T02:22:48.480Z,68.84
2022-08-02T02:25:27.527Z,69.02
2022-08-02T02:28:06.988Z,69.19
2022-08-02T02:30:40.060Z,69.56
2022-08-02T02:33:09.828Z,69.86
2022-08-02T02:35:39.389Z,70.11
2022-08-02T02:38:13.573Z,70.44
2022-08-02T02:40:42.493Z,70.73
2022-08-02T02:43:11.953Z,71.06
2022-08-02T02:45:42.709Z,71.40
2022-08-02T02:48:11.637Z,71.76
2022-08-02T02:50:40.503Z,72.03
2022-08-02T02:53:10.390Z,72.31
2022-08-02T02:55:38.814Z,72.67
2022-08-02T02:58:09.019Z,72.86
2022-08-02T03:00:55.402Z,73.03
2022-08-02T03:03:27.107Z,73.22
2022-08-02T03:05:56.485Z,73.31
2022-08-02T03:08:24.577Z,73.41
2022-08-02T03:10:54.208Z,73.46
2022-08-02T03:13:22.451Z,73.35
2022-08-02T03:15:57.279Z,73.42
2022-08-02T03:18:36.597Z,73.53
2022-08-02T03:21:07.858Z,73.49
2022-08-02T03:23:36.365Z,73.72
2022-08-02T03:26:04.594Z,73.79
2022-08-02T03:28:33.877Z,73.83
2022-08-02T03:31:02.087Z,73.90
2022-08-02T03:33:31.572Z,73.87
2022-08-02T03:36:04.896Z,73.88
2022-08-02T03:38:34.936Z,73.83
2022-08-02T03:41:03.926Z,73.82
2022-08-02T03:43:32.604Z,73.89
2022-08-02T03:46:01.250Z,74.06
2022-08-02T03:48:34.274Z,74.14
2022-08-02T03:51:05.076Z,74.25
2022-08-02T03:53:33.880Z,74.44
2022-08-02T03:56:02.397Z,74.58
2022-08-02T03:58:30.639Z,74.76
2022-08-02T04:00:59.411Z,74.81
2022-08-02T04:03:27.766Z,74.75
2022-08-02T04:06:03.594Z,74.72
2022-08-02T04:08:37.972Z,74.69
2022-08-02T04:11:24.469Z,74.75
2022-08-02T04:13:54.719Z,74.55
2022-08-02T04:16:31.103Z,74.31
2022-08-02T04:19:02.327Z,74.01
2022-08-02T04:21:49.055Z,73.58
2022-08-02T04:24:24.770Z,73.10
2022-08-02T04:26:55.067Z,72.75
2022-08-02T04:29:27.298Z,72.66
2022-08-02T04:31:55.834Z,72.50
2022-08-02T04:34:23.941Z,72.35
2022-08-02T04:36:52.174Z,71.81
2022-08-02T04:39:21.794Z,70.70
2022-08-02T04:41:54.419Z,69.71
2022-08-02T04:44:25.381Z,69.23
2022-08-02T04:46:54.577Z,69.12
2022-08-02T04:49:22.868Z,69.21
2022-08-02T04:51:51.028Z,69.26
2022-08-02T04:54:20.337Z,69.22
2022-08-02T04:56:49.755Z,68.66
2022-08-02T04:59:17.795Z,66.89
2022-08-02T05:01:45.924Z,64.69
2022-08-02T05:04:14.256Z,61.94
2022-08-02T05:06:42.711Z,59.39
2022-08-02T05:09:10.751Z,57.10
2022-08-02T05:11:38.827Z,54.62
2022-08-02T05:14:08.509Z,52.88
2022-08-02T05:16:37.574Z,51.25
2022-08-02T05:19:06.228Z,49.83
2022-08-02T05:21:34.244Z,48.63
2022-08-02T05:24:02.467Z,47.76
2022-08-02T05:26:30.508Z,46.36
2022-08-02T05:28:58.672Z,45.55
2022-08-02T05:31:28.214Z,44.99
2022-08-02T05:33:56.193Z,44.59
2022-08-02T05:36:25.494Z,43.91
2022-08-02T05:38:59.614Z,43.50
2022-08-02T05:41:33.126Z,43.01
2022-08-02T05:44:01.293Z,42.49
2022-08-02T05:46:31.107Z,41.90
2022-08-02T05:48:59.307Z,41.52
2022-08-02T05:51:30.724Z,40.72
2022-08-02T05:54:10.869Z,40.89
2022-08-02T05:56:45.704Z,40.48
2022-08-02T05:59:38.769Z,40.32
2022-08-02T06:02:20.515Z,40.40
2022-08-02T06:04:54.648Z,39.53
2022-08-02T06:07:27.072Z,39.12
2022-08-02T06:09:55.542Z,38.37
2022-08-02T06:12:26.971Z,37.56
2022-08-02T06:14:57.735Z,37.53
2022-08-02T06:17:27.320Z,37.44
2022-08-02T06:19:58.690Z,37.32
2022-08-02T06:22:41.685Z,37.22
2022-08-02T06:25:49.882Z,36.49
2022-08-02T06:28:02.812Z,36.03
2022-08-02T06:30:34.769Z,36.54
2022-08-02T06:33:04.217Z,36.72
2022-08-02T06:35:36.077Z,37.01
2022-08-02T06:38:04.517Z,36.80
2022-08-02T06:40:35.555Z,36.87
2022-08-02T06:43:13.478Z,36.85
2022-08-02T06:45:42.231Z,36.57
2022-08-02T06:48:11.887Z,36.64
2022-08-02T06:50:42.224Z,36.17
2022-08-02T06:53:11.378Z,36.04
2022-08-02T06:55:43.322Z,35.95
2022-08-02T06:58:13.677Z,36.13
2022-08-02T07:00:41.969Z,36.40
2022-08-02T07:03:12.260Z,35.94
2022-08-02T07:05:41.630Z,35.60
2022-08-02T07:08:09.651Z,35.51
2022-08-02T07:10:37.704Z,35.94
2022-08-02T07:13:05.969Z,35.14
2022-08-02T07:15:37.143Z,35.68
2022-08-02T07:18:05.719Z,35.66
2022-08-02T07:20:35.455Z,34.95
2022-08-02T07:23:05.279Z,34.42
2022-08-02T07:26:02.818Z,34.06
2022-08-02T07:28:25.384Z,33.93
2022-08-02T07:30:53.761Z,33.40
2022-08-02T07:33:37.681Z,34.86
2022-08-02T07:36:16.922Z,34.35
2022-08-02T07:38:50.964Z,34.68
2022-08-02T07:41:21.797Z,33.55
2022-08-02T07:43:52.797Z,32.98
2022-08-02T07:46:20.913Z,32.84
2022-08-02T07:48:49.235Z,32.75
2022-08-02T07:51:19.374Z,32.90
2022-08-02T07:53:50.880Z,32.22
2022-08-02T07:56:30.654Z,32.36
2022-08-02T07:58:59.103Z,31.98
2022-08-02T08:01:27.503Z,32.26
2022-08-02T08:03:55.644Z,31.97
2022-08-02T08:06:28.815Z,32.74
2022-08-02T08:08:57.470Z,32.08
2022-08-02T08:11:25.776Z,32.12
2022-08-02T08:14:01.763Z,31.79
2022-08-02T08:16:30.191Z,31.90
2022-08-02T08:18:58.244Z,31.77
2022-08-02T08:21:27.784Z,32.23
2022-08-02T08:23:56.177Z,32.15
2022-08-02T08:26:25.420Z,32.00
2022-08-02T08:28:53.861Z,31.98
2022-08-02T08:31:22.607Z,32.28
2022-08-02T08:33:50.808Z,33.21
2022-08-02T08:36:18.868Z,34.65
2022-08-02T08:38:48.998Z,35.39
2022-08-02T08:41:17.770Z,35.69
2022-08-02T08:43:50.103Z,35.87
2022-08-02T08:46:26.463Z,35.29
2022-08-02T08:49:01.354Z,34.90
2022-08-02T08:51:32.957Z,34.13
2022-08-02T08:54:04.783Z,34.16
2022-08-02T08:56:34.424Z,34.91
2022-08-02T08:59:02.943Z,34.62
2022-08-02T09:01:50.273Z,34.09
2022-08-02T09:04:19.383Z,33.64
2022-08-02T09:06:47.771Z,33.71
2022-08-02T09:09:18.797Z,34.28
2022-08-02T09:11:47.029Z,34.64
2022-08-02T09:14:27.189Z,34.47
2022-08-02T09:16:55.239Z,34.35
2022-08-02T09:19:29.633Z,34.12
2022-08-02T09:22:03.780Z,34.00
2022-08-02T09:24:44.821Z,33.68
2022-08-02T09:27:14.597Z,33.73
2022-08-02T09:30:11.475Z,34.69
2022-08-02T09:32:45.576Z,35.81
2022-08-02T09:35:14.138Z,35.22
2022-08-02T09:37:45.711Z,35.42
2022-08-02T09:40:19.514Z,34.87
2022-08-02T09:43:01.370Z,34.29
2022-08-02T09:45:32.227Z,34.04
2022-08-02T09:48:00.658Z,33.56
2022-08-02T09:50:28.966Z,33.50
2022-08-02T09:53:00.198Z,33.66
2022-08-02T09:55:31.793Z,33.51
2022-08-02T09:58:00.824Z,33.18
2022-08-02T10:00:50.647Z,32.55
2022-08-02T10:03:22.648Z,32.60
2022-08-02T10:05:56.299Z,32.03
2022-08-02T10:08:33.088Z,32.04
2022-08-02T10:11:23.460Z,33.42
2022-08-02T10:40:32.964Z,36.02
2022-08-02T10:46:31.557Z,35.53
2022-08-02T10:52:18.638Z,35.21
2022-08-02T10:54:53.170Z,34.98
2022-08-02T10:57:30.051Z,35.40
2022-08-02T11:00:02.644Z,36.04
2022-08-02T11:02:41.085Z,35.11
2022-08-02T11:05:18.119Z,35.35
2022-08-02T11:07:51.417Z,35.60
2022-08-02T11:10:34.836Z,35.11
2022-08-02T11:13:07.561Z,34.82
2022-08-02T11:15:52.004Z,34.86
2022-08-02T11:18:22.069Z,34.88
2022-08-02T11:21:25.172Z,35.78
2022-08-02T11:23:54.750Z,35.61
2022-08-02T11:26:45.937Z,34.87
2022-08-02T11:29:18.812Z,34.98
2022-08-02T11:31:48.181Z,34.15
2022-08-02T11:34:36.857Z,34.64
2022-08-02T11:37:08.199Z,33.96
2022-08-02T11:39:37.071Z,34.28
2022-08-02T11:42:06.381Z,33.61
2022-08-02T11:44:43.561Z,34.80
2022-08-02T11:47:12.886Z,35.10
2022-08-02T11:49:42.490Z,34.84
2022-08-02T11:52:12.407Z,34.81
2022-08-02T11:54:42.614Z,34.62
2022-08-02T11:57:19.885Z,34.11
2022-08-02T11:59:54.813Z,34.22
2022-08-02T12:05:44.778Z,35.95
2022-08-02T12:08:19.014Z,36.32
2022-08-02T12:10:53.702Z,36.48
2022-08-02T12:13:22.149Z,36.92
2022-08-02T12:16:16.378Z,37.33
2022-08-02T12:19:07.332Z,37.80
2022-08-02T12:21:36.354Z,38.36
2022-08-02T12:24:05.318Z,38.60
2022-08-02T12:26:43.632Z,38.62
2022-08-02T12:29:12.246Z,39.48
2022-08-02T12:31:55.710Z,39.90
2022-08-02T12:34:31.632Z,40.11
2022-08-02T12:37:06.332Z,40.21
2022-08-02T12:39:37.989Z,39.83
2022-08-02T12:42:07.331Z,40.49
2022-08-02T12:44:37.905Z,39.66
2022-08-02T12:47:09.765Z,39.99
2022-08-02T12:49:38.429Z,40.02
2022-08-02T12:52:20.487Z,39.74
2022-08-02T12:54:50.988Z,40.23
2022-08-02T12:57:23.472Z,40.19
2022-08-02T12:59:54.988Z,40.21
2022-08-02T13:02:25.179Z,40.40
2022-08-02T13:04:55.179Z,40.15
2022-08-02T13:07:25.618Z,40.42
2022-08-02T13:10:00.246Z,39.45
2022-08-02T13:12:31.736Z,39.22
2022-08-02T13:14:59.983Z,39.76
2022-08-02T13:17:29.963Z,40.08
2022-08-02T13:19:59.758Z,39.90
2022-08-02T13:22:29.486Z,40.18
2022-08-02T13:24:59.005Z,40.38
2022-08-02T13:27:28.910Z,39.94
2022-08-02T13:29:59.063Z,39.99
2022-08-02T13:32:27.962Z,39.90
2022-08-02T13:35:00.509Z,39.81
2022-08-02T13:37:29.694Z,39.65
2022-08-02T13:42:50.981Z,39.60
2022-08-02T13:45:19.920Z,39.86
2022-08-02T13:48:04.454Z,40.16
2022-08-02T13:50:36.282Z,39.74
2022-08-02T13:53:09.137Z,39.55
2022-08-02T13:55:37.422Z,39.54
2022-08-02T13:58:11.691Z,39.67
2022-08-02T14:04:07.475Z,39.65
2022-08-02T14:07:05.041Z,39.45
2022-08-02T14:10:21.807Z,39.36
2022-08-02T14:12:58.790Z,38.86
2022-08-02T14:18:25.134Z,39.41
2022-08-02T14:26:36.008Z,39.69
2022-08-02T14:29:08.082Z,39.66
2022-08-02T14:37:31.704Z,39.65
2022-08-02T14:43:06.388Z,38.89
2022-08-02T14:45:44.509Z,38.72
2022-08-02T14:48:15.591Z,38.89
2022-08-02T14:51:34.225Z,38.45
2022-08-02T15:02:53.355Z,38.46
2022-08-02T15:08:20.246Z,38.36
2022-08-02T15:10:50.178Z,38.28
2022-08-02T15:13:23.007Z,38.15
2022-08-02T15:15:56.105Z,38.22
2022-08-02T15:18:28.246Z,38.49
2022-08-02T15:20:59.892Z,38.90
2022-08-02T15:26:59.338Z,39.57
2022-08-02T15:29:37.455Z,39.49
2022-08-02T15:32:14.119Z,40.19
2022-08-02T15:34:44.340Z,39.83
2022-08-02T15:37:13.986Z,40.22
2022-08-02T15:39:42.633Z,39.83
2022-08-02T15:42:11.216Z,39.89
2022-08-02T15:44:40.918Z,40.25
2022-08-02T15:47:09.470Z,40.53
2022-08-02T15:49:41.341Z,40.52
2022-08-02T15:52:11.758Z,39.96
2022-08-02T15:54:40.237Z,40.19
2022-08-02T15:57:09.503Z,40.07
2022-08-02T15:59:39.104Z,39.84
2022-08-02T16:02:07.791Z,39.77
2022-08-02T16:04:36.431Z,39.22
2022-08-02T16:07:04.786Z,38.68
2022-08-02T16:09:34.489Z,38.68
2022-08-02T16:12:04.703Z,38.91
2022-08-02T16:14:33.194Z,38.85
2022-08-02T16:17:01.388Z,38.60
2022-08-02T16:19:30.668Z,38.71
2022-08-02T16:22:19.028Z,39.31
2022-08-02T16:24:49.130Z,39.36
2022-08-02T16:27:18.707Z,39.47
2022-08-02T16:29:48.671Z,39.63
2022-08-02T16:32:17.289Z,39.76
2022-08-02T16:35:07.443Z,40.25
2022-08-02T16:37:51.837Z,40.43
2022-08-02T16:40:23.035Z,40.75
2022-08-02T16:42:53.625Z,40.46
2022-08-02T16:45:22.707Z,40.52
2022-08-02T16:47:56.045Z,40.61
2022-08-02T16:50:28.415Z,40.88
2022-08-02T16:52:58.258Z,41.06
2022-08-02T16:55:30.549Z,40.74
2022-08-02T16:57:58.803Z,40.59
2022-08-02T17:00:31.099Z,40.72
2022-08-02T17:03:13.459Z,41.17
2022-08-02T17:05:56.425Z,40.98
2022-08-02T17:08:32.070Z,41.37
2022-08-02T17:11:04.131Z,41.78
2022-08-02T17:13:34.164Z,41.91
2022-08-02T17:16:20.926Z,41.93
2022-08-02T17:18:54.467Z,41.80
2022-08-02T17:21:24.418Z,42.02
2022-08-02T17:24:05.153Z,42.00
2022-08-02T17:26:42.930Z,41.96
2022-08-02T17:29:16.346Z,42.18
2022-08-02T17:32:05.795Z,42.66
2022-08-02T17:34:38.538Z,42.70
2022-08-02T17:37:07.847Z,43.22
2022-08-02T17:39:44.422Z,43.71
2022-08-02T17:42:23.410Z,43.08
2022-08-02T17:44:53.659Z,43.61
2022-08-02T17:47:22.081Z,43.47
2022-08-02T17:49:50.312Z,43.39
2022-08-02T17:52:50.272Z,43.49
2022-08-02T17:55:14.158Z,43.98
2022-08-02T17:57:57.302Z,44.38
2022-08-02T18:00:36.267Z,44.69
2022-08-02T18:03:09.863Z,44.67
2022-08-02T18:05:41.656Z,44.91
2022-08-02T18:08:22.854Z,45.21
2022-08-02T18:10:52.623Z,45.77
2022-08-02T18:13:22.142Z,45.84
2022-08-02T18:15:57.282Z,45.88
2022-08-02T18:18:29.712Z,46.27
2022-08-02T18:21:16.130Z,46.47
2022-08-02T18:23:48.617Z,46.60
2022-08-02T18:26:18.222Z,46.57
2022-08-02T18:28:50.995Z,47.02
2022-08-02T18:31:23.001Z,47.05
2022-08-02T18:33:56.814Z,47.44
2022-08-02T18:36:30.340Z,47.76
2022-08-02T18:39:08.259Z,48.18
2022-08-02T18:41:38.248Z,48.21
2022-08-02T18:44:08.056Z,48.43
2022-08-02T18:46:39.979Z,48.74
2022-08-02T18:49:14.946Z,50.00
2022-08-02T18:51:44.645Z,51.85
2022-08-02T18:54:14.543Z,53.06
2022-08-02T18:56:47.444Z,53.36
2022-08-02T18:59:20.122Z,53.94
2022-08-02T19:01:50.763Z,54.58
2022-08-02T19:04:27.352Z,54.98
2022-08-02T19:07:01.753Z,55.40
2022-08-02T19:09:36.366Z,55.57
2022-08-02T19:12:11.896Z,55.64
2022-08-02T19:14:41.916Z,55.47
2022-08-02T19:17:53.151Z,55.11
2022-08-02T19:19:58.571Z,55.11
2022-08-02T19:22:27.302Z,54.69
2022-08-02T19:25:01.185Z,54.99
2022-08-02T19:27:32.663Z,55.23
2022-08-02T19:30:07.715Z,55.22
2022-08-02T19:32:42.537Z,55.94
2022-08-02T19:35:30.689Z,56.14
2022-08-02T19:38:07.654Z,56.30
2022-08-02T19:40:38.659Z,57.27
2022-08-02T19:44:26.323Z,57.18
2022-08-02T19:45:57.606Z,57.60
2022-08-02T19:48:27.187Z,57.78
2022-08-02T19:51:01.166Z,58.33
2022-08-02T19:53:47.428Z,58.44
2022-08-02T19:56:25.249Z,58.84
2022-08-02T19:58:54.935Z,59.41
2022-08-02T20:01:37.254Z,59.05
2022-08-02T20:04:13.713Z,59.94
2022-08-02T20:06:46.091Z,59.92
2022-08-02T20:09:16.353Z,60.13
2022-08-02T20:11:47.305Z,60.08
2022-08-02T20:14:26.773Z,59.77
2022-08-02T20:16:58.197Z,59.66
2022-08-02T20:19:29.011Z,59.56
2022-08-02T20:24:46.860Z,59.20
2022-08-02T20:27:21.763Z,59.82
2022-08-02T20:30:05.240Z,59.36
2022-08-02T20:32:34.975Z,59.53
2022-08-02T20:35:06.240Z,59.44
2022-08-02T20:37:55.922Z,59.42
2022-08-02T20:40:24.788Z,59.79
2022-08-02T20:42:54.161Z,59.93
2022-08-02T20:45:27.146Z,59.89
2022-08-02T20:47:58.555Z,60.11
2022-08-02T20:50:46.221Z,60.35
2022-08-02T20:53:23.698Z,60.47
2022-08-02T20:55:55.475Z,60.57
2022-08-02T20:58:27.187Z,61.01
2022-08-02T21:00:59.248Z,61.01
2022-08-02T21:03:38.855Z,60.94
2022-08-02T21:06:08.735Z,61.05
2022-08-02T21:08:38.228Z,60.63
2022-08-02T21:11:09.488Z,60.52
2022-08-02T21:13:47.062Z,60.64
2022-08-02T21:16:29.193Z,60.65
2022-08-02T21:19:00.539Z,60.61
2022-08-02T21:21:29.798Z,61.47
2022-08-02T21:23:59.952Z,61.81
2022-08-02T21:26:30.479Z,61.53
2022-08-02T21:29:01.050Z,62.00
2022-08-02T21:31:35.791Z,62.28
2022-08-02T21:34:21.580Z,62.30
2022-08-02T21:36:50.788Z,62.27
2022-08-02T21:39:18.858Z,61.96
2022-08-02T21:41:50.091Z,62.17
2022-08-02T21:44:20.189Z,62.20
2022-08-02T21:46:50.266Z,62.19
2022-08-02T21:49:20.869Z,62.00
2022-08-02T21:51:55.702Z,62.45
2022-08-02T21:54:24.472Z,62.93
2022-08-02T21:56:53.078Z,62.66
2022-08-02T21:59:25.834Z,62.77
2022-08-02T22:01:56.936Z,62.55
2022-08-02T22:04:27.257Z,62.41
2022-08-02T22:06:55.851Z,62.28
2022-08-02T22:09:43.170Z,62.04
2022-08-02T22:12:16.662Z,62.24
2022-08-02T22:14:49.470Z,62.68
2022-08-02T22:17:50.485Z,62.29
2022-08-02T22:20:13.640Z,62.59
2022-08-02T22:22:43.173Z,62.60
2022-08-02T22:25:26.704Z,62.67
2022-08-02T22:28:35.942Z,62.76
2022-08-02T22:30:52.652Z,62.48
2022-08-02T22:33:42.246Z,62.48
2022-08-02T22:36:16.374Z,62.11
2022-08-02T22:38:44.888Z,62.37
2022-08-02T22:41:13.794Z,62.23
2022-08-02T22:43:42.300Z,62.69
2022-08-02T22:46:15.459Z,62.89
2022-08-02T22:48:45.488Z,63.17
2022-08-02T22:51:14.633Z,63.34
2022-08-02T22:53:45.420Z,63.42
2022-08-02T22:56:15.481Z,63.58
2022-08-02T22:59:08.077Z,59.51
2022-08-02T23:01:32.475Z,64.63
2022-08-02T23:04:00.939Z,64.35
2022-08-02T23:06:31.315Z,64.56
2022-08-02T23:09:02.115Z,64.84
2022-08-02T23:11:30.476Z,64.99
2022-08-02T23:13:58.574Z,65.28
2022-08-02T23:16:44.452Z,65.66
2022-08-02T23:19:29.967Z,65.50
2022-08-02T23:22:01.667Z,65.66
2022-08-02T23:24:33.957Z,65.74
2022-08-02T23:27:03.482Z,65.89
2022-08-02T23:29:31.507Z,66.59
2022-08-02T23:32:00.204Z,66.63
2022-08-02T23:34:29.420Z,66.61
2022-08-02T23:36:57.433Z,66.55
2022-08-02T23:39:25.854Z,66.81
2022-08-02T23:41:55.987Z,67.07
2022-08-02T23:44:24.779Z,67.23
2022-08-02T23:46:53.429Z,67.48
2022-08-02T23:49:23.783Z,67.62
2022-08-02T23:51:52.809Z,67.77
2022-08-02T23:54:21.687Z,67.87
2022-08-02T23:56:49.884Z,68.19
2022-08-02T23:59:19.350Z,68.20
